Time;durP1;ratioP1;P1;durP2;ratioP2;P2;SDS_P1;SDS_P2;PMS_P1;PMS_P2;Temp;Humidity;BMP_temperature;BMP_pressure;BME280_temperature;BME280_humidity;BME280_pressure;Samples;Min_cycle;Max_cycle;Signal;HPM_P1;HPM_P2
2023/01/30 00:02:15;;;;;;;19.80;14.00;;;4.10;99.90;;;;;;5055295;28;20412;-89
2023/01/30 00:04:40;;;;;;;18.52;13.88;;;3.90;99.90;;;;;;5037023;28;20556;-89
2023/01/30 00:07:06;;;;;;;19.80;14.45;;;4.00;99.90;;;;;;5055270;28;20135;-89
2023/01/30 00:09:31;;;;;;;18.60;13.75;;;4.20;99.90;;;;;;5037285;28;20037;-89
2023/01/30 00:11:57;;;;;;;17.95;13.68;;;3.80;99.90;;;;;;5036827;28;20021;-88
2023/01/30 00:14:23;;;;;;;20.23;14.35;;;3.70;99.90;;;;;;5055019;28;20041;-89
2023/01/30 00:16:48;;;;;;;17.75;13.20;;;4.10;99.90;;;;;;5055033;28;20017;-89
2023/01/30 00:19:14;;;;;;;19.73;13.90;;;3.50;99.90;;;;;;5036922;28;20440;-89
2023/01/30 00:21:39;;;;;;;18.02;13.30;;;3.50;99.90;;;;;;5037155;28;20051;-89
2023/01/30 00:24:05;;;;;;;19.85;13.15;;;3.90;99.90;;;;;;5036776;28;20029;-88
2023/01/30 00:26:31;;;;;;;21.00;15.02;;;3.60;99.90;;;;;;5036612;28;20465;-89
2023/01/30 00:28:57;;;;;;;21.60;14.70;;;3.80;99.90;;;;;;5036781;28;20108;-89
2023/01/30 00:31:22;;;;;;;17.80;13.20;;;3.70;99.90;;;;;;5037081;28;20393;-89
2023/01/30 00:33:48;;;;;;;24.80;17.77;;;3.80;99.90;;;;;;5054255;28;20077;-89
2023/01/30 00:36:13;;;;;;;40.28;27.02;;;3.50;99.90;;;;;;5036367;28;20029;-89
2023/01/30 00:38:39;;;;;;;21.73;15.70;;;3.60;99.90;;;;;;5054383;28;20477;-89
2023/01/30 00:41:04;;;;;;;27.00;20.23;;;3.60;99.90;;;;;;5035613;28;20033;-89
2023/01/30 00:49:12;;;;;;;19.00;14.20;;;3.40;99.90;;;;;;5054566;28;20044;-89
2023/01/30 00:51:38;;;;;;;18.88;14.20;;;3.60;99.90;;;;;;5054008;28;20474;-89
2023/01/30 00:54:04;;;;;;;19.02;14.23;;;3.70;99.90;;;;;;5036048;28;20029;-89
2023/01/30 00:56:29;;;;;;;18.65;13.98;;;3.50;99.90;;;;;;5054217;28;20024;-90
2023/01/30 00:58:55;;;;;;;20.10;14.02;;;3.50;99.90;;;;;;5036156;28;20025;-89
2023/01/30 01:01:21;;;;;;;19.75;14.35;;;3.60;99.90;;;;;;5053910;28;20064;-89
2023/01/30 01:03:46;;;;;;;21.55;15.35;;;3.80;99.90;;;;;;5054018;28;20112;-89
2023/01/30 01:06:12;;;;;;;21.15;14.45;;;3.50;99.90;;;;;;5054114;28;20482;-90
2023/01/30 01:08:38;;;;;;;19.52;14.38;;;3.40;99.90;;;;;;5053359;28;20027;-89
2023/01/30 01:11:03;;;;;;;19.75;14.60;;;3.10;99.90;;;;;;5053659;28;20037;-89
2023/01/30 01:13:29;;;;;;;102.05;46.78;;;3.00;99.90;;;;;;5053959;28;20037;-89
2023/01/30 01:15:54;;;;;;;245.82;106.75;;;3.00;99.90;;;;;;5053586;28;20116;-89
2023/01/30 01:18:20;;;;;;;223.75;110.22;;;3.20;99.90;;;;;;5053774;28;20029;-89
2023/01/30 01:20:46;;;;;;;153.77;80.40;;;3.50;99.90;;;;;;5035685;28;20453;-89
2023/01/30 01:23:12;;;;;;;80.82;52.30;;;3.20;99.90;;;;;;5053302;28;20040;-89
2023/01/30 01:25:37;;;;;;;28.60;20.08;;;3.30;99.90;;;;;;5053724;28;20017;-89
2023/01/30 01:28:03;;;;;;;24.17;17.00;;;3.20;99.90;;;;;;5053931;28;20025;-90
2023/01/30 01:30:29;;;;;;;20.27;15.85;;;3.00;99.90;;;;;;5035564;28;20488;-89
2023/01/30 01:32:56;;;;;;;21.63;16.15;;;3.00;99.90;;;;;;5035613;28;20139;-89
2023/01/30 01:35:22;;;;;;;20.10;14.23;;;3.30;99.90;;;;;;5053488;28;20028;-88
2023/01/30 01:37:47;;;;;;;20.13;13.85;;;3.60;99.90;;;;;;5053153;28;20029;-88
2023/01/30 01:43:15;;;;;;;18.73;13.85;;;3.20;99.90;;;;;;5053468;28;20116;-89
2023/01/30 01:45:42;;;;;;;17.90;13.50;;;3.40;99.90;;;;;;5035583;28;20047;-89
2023/01/30 01:48:14;;;;;;;17.60;12.90;;;3.20;99.90;;;;;;5053118;28;20017;-88
2023/01/30 01:50:48;;;;;;;17.95;13.30;;;3.00;99.90;;;;;;5053180;28;20036;-89
2023/01/30 01:53:17;;;;;;;19.35;12.93;;;3.00;99.90;;;;;;5052527;28;20025;-89
2023/01/30 01:55:47;;;;;;;17.92;13.00;;;3.00;99.90;;;;;;5035073;28;20029;-89
2023/01/30 01:58:24;;;;;;;19.40;13.95;;;3.40;99.90;;;;;;5035263;28;20017;-90
2023/01/30 02:00:50;;;;;;;18.85;13.65;;;3.10;99.90;;;;;;5052893;28;20050;-89
2023/01/30 02:03:21;;;;;;;20.80;13.57;;;3.30;99.90;;;;;;5053048;28;20093;-89
2023/01/30 02:05:51;;;;;;;18.02;13.10;;;2.90;99.90;;;;;;5035281;28;20033;-88
2023/01/30 02:08:19;;;;;;;19.38;13.45;;;3.00;99.90;;;;;;5053034;28;20025;-88
2023/01/30 02:10:57;;;;;;;22.73;17.33;;;3.20;99.90;;;;;;5035159;28;20033;-90
2023/01/30 02:13:23;;;;;;;19.75;13.55;;;3.40;99.90;;;;;;5053032;28;20029;-88
2023/01/30 02:15:50;;;;;;;16.90;12.07;;;3.20;99.90;;;;;;5052852;28;20492;-89
2023/01/30 02:18:16;;;;;;;22.17;16.98;;;3.40;99.90;;;;;;5052932;28;20617;-89
2023/01/30 02:21:00;;;;;;;19.63;14.50;;;3.70;99.90;;;;;;5034671;28;20029;-89
2023/01/30 02:23:46;;;;;;;17.08;12.07;;;3.30;99.90;;;;;;5052856;28;20393;-91
2023/01/30 02:26:27;;;;;;;17.55;12.52;;;3.20;99.90;;;;;;5052687;28;20100;-88
2023/01/30 02:29:13;;;;;;;15.90;11.60;;;3.10;99.90;;;;;;5052999;28;20484;-89
2023/01/30 02:31:51;;;;;;;26.92;18.73;;;3.10;99.90;;;;;;5052835;28;20108;-89
2023/01/30 02:34:34;;;;;;;20.90;14.45;;;3.10;99.90;;;;;;5052359;28;20424;-89
2023/01/30 02:37:25;;;;;;;17.23;12.55;;;3.10;99.90;;;;;;5034870;28;20029;-88
2023/01/30 02:40:28;;;;;;;18.90;14.27;;;3.00;99.90;;;;;;5034951;28;20709;-89
2023/01/30 02:43:32;;;;;;;18.13;13.07;;;3.10;99.90;;;;;;5052897;28;20048;-89
2023/01/30 02:46:12;;;;;;;24.60;17.30;;;3.20;99.90;;;;;;5052740;28;20029;-89
2023/01/30 02:48:46;;;;;;;32.97;21.55;;;3.10;99.90;;;;;;5034721;28;20476;-89
2023/01/30 02:51:18;;;;;;;17.23;12.73;;;3.20;99.90;;;;;;5034394;28;20572;-89
2023/01/30 02:53:49;;;;;;;17.00;12.15;;;3.10;99.90;;;;;;5052661;28;20021;-89
2023/01/30 02:56:15;;;;;;;18.65;11.88;;;3.00;99.90;;;;;;5052650;28;20029;-88
2023/01/30 02:58:58;;;;;;;22.73;15.27;;;3.20;99.90;;;;;;5034445;28;20477;-90
2023/01/30 03:01:46;;;;;;;18.83;13.05;;;3.40;99.90;;;;;;5052730;28;20110;-89
2023/01/30 03:04:47;;;;;;;22.95;15.45;;;3.20;99.90;;;;;;5052452;28;20024;-89
2023/01/30 03:07:26;;;;;;;17.38;12.55;;;3.10;99.90;;;;;;5056304;28;20086;-89
2023/01/30 03:10:37;;;;;;;21.00;14.07;;;3.10;99.90;;;;;;5038460;28;20060;-90
2023/01/30 03:13:26;;;;;;;41.08;26.33;;;3.20;99.90;;;;;;4994782;28;20034;-89
2023/01/30 03:16:02;;;;;;;33.53;21.77;;;3.40;99.90;;;;;;4993995;28;20034;-90
2023/01/30 03:18:28;;;;;;;55.72;32.63;;;3.40;99.90;;;;;;4991671;28;20031;-90
2023/01/30 03:20:54;;;;;;;36.80;21.27;;;3.40;99.90;;;;;;4978503;28;20412;-89
2023/01/30 03:23:20;;;;;;;48.03;26.95;;;3.30;99.90;;;;;;4994578;28;20026;-89
2023/01/30 03:25:47;;;;;;;54.92;28.25;;;3.60;99.90;;;;;;4995114;28;20038;-89
2023/01/30 03:28:17;;;;;;;70.43;36.13;;;3.60;99.90;;;;;;4978337;28;20035;-90
2023/01/30 03:30:42;;;;;;;56.55;29.73;;;3.50;99.90;;;;;;4994538;28;20049;-89
2023/01/30 03:33:08;;;;;;;75.47;38.70;;;3.30;99.90;;;;;;4974780;28;20042;-89
2023/01/30 03:35:34;;;;;;;46.33;26.75;;;3.60;99.90;;;;;;4976450;28;20036;-89
2023/01/30 03:38:00;;;;;;;20.33;13.63;;;3.10;99.90;;;;;;4977906;28;20049;-89
2023/01/30 03:40:25;;;;;;;20.50;12.75;;;3.10;99.90;;;;;;4994434;28;20218;-89
2023/01/30 03:42:51;;;;;;;19.65;13.25;;;3.10;99.90;;;;;;4994323;28;20034;-89
2023/01/30 03:45:17;;;;;;;44.95;28.70;;;3.30;99.90;;;;;;4994438;28;20058;-89
2023/01/30 03:47:42;;;;;;;21.95;16.60;;;3.60;99.90;;;;;;5042643;28;20127;-89
2023/01/30 03:50:09;;;;;;;27.63;18.48;;;3.50;99.90;;;;;;5055279;28;20086;-89
2023/01/30 03:52:35;;;;;;;14.88;11.45;;;3.10;99.90;;;;;;5037641;28;20025;-89
2023/01/30 03:55:01;;;;;;;16.40;12.18;;;3.00;99.90;;;;;;5055612;28;20043;-89
2023/01/30 03:57:26;;;;;;;18.08;11.20;;;3.10;99.90;;;;;;5055344;28;20029;-90
2023/01/30 03:59:52;;;;;;;16.40;11.50;;;2.90;99.90;;;;;;5037504;28;20036;-89
2023/01/30 04:02:22;;;;;;;15.25;11.38;;;2.80;99.90;;;;;;5037044;28;20025;-89
2023/01/30 04:04:48;;;;;;;16.75;11.35;;;3.20;99.90;;;;;;5055099;28;20556;-89
2023/01/30 04:07:14;;;;;;;16.90;12.30;;;3.20;99.90;;;;;;5055397;28;20025;-89
2023/01/30 04:09:40;;;;;;;16.00;11.23;;;3.40;99.90;;;;;;5054732;28;20538;-89
2023/01/30 04:12:06;;;;;;;17.38;12.10;;;3.00;99.90;;;;;;5037796;28;20025;-89
2023/01/30 04:14:31;;;;;;;15.35;11.48;;;3.00;99.90;;;;;;5037159;28;20017;-89
2023/01/30 04:16:57;;;;;;;15.98;11.40;;;3.60;99.90;;;;;;5036651;28;20032;-89
2023/01/30 04:19:23;;;;;;;15.05;11.38;;;3.50;99.90;;;;;;5055092;28;20432;-90
2023/01/30 04:21:48;;;;;;;18.20;12.57;;;3.30;99.90;;;;;;5054916;28;20048;-90
2023/01/30 04:24:14;;;;;;;15.85;11.73;;;3.00;99.90;;;;;;5037272;28;20029;-90
2023/01/30 04:26:39;;;;;;;16.30;11.95;;;3.50;99.90;;;;;;5036976;28;20021;-90
2023/01/30 04:29:06;;;;;;;16.08;11.55;;;3.40;99.90;;;;;;5036722;28;20030;-89
2023/01/30 04:31:32;;;;;;;15.30;11.27;;;3.20;99.90;;;;;;5037321;28;20615;-89
2023/01/30 04:33:57;;;;;;;15.88;11.68;;;3.30;99.90;;;;;;5054614;28;20045;-89
2023/01/30 04:36:23;;;;;;;17.65;10.80;;;3.50;99.90;;;;;;5055032;28;20020;-89
2023/01/30 04:38:49;;;;;;;16.05;11.13;;;3.50;99.90;;;;;;5036763;28;20076;-89
2023/01/30 04:41:15;;;;;;;14.25;10.85;;;3.20;99.90;;;;;;5036564;28;20024;-89
2023/01/30 04:43:40;;;;;;;14.60;10.70;;;3.10;99.90;;;;;;5054428;28;20462;-89
2023/01/30 04:46:06;;;;;;;14.23;10.65;;;3.70;99.90;;;;;;5036295;28;20021;-89
2023/01/30 04:48:31;;;;;;;15.93;10.63;;;3.00;99.90;;;;;;5036376;28;20036;-89
2023/01/30 04:50:57;;;;;;;13.02;10.35;;;3.00;99.90;;;;;;5054491;28;20032;-89
2023/01/30 04:53:24;;;;;;;15.45;10.85;;;3.20;99.90;;;;;;5054257;28;20028;-89
2023/01/30 04:55:49;;;;;;;15.73;10.70;;;3.50;99.90;;;;;;5036656;28;20499;-89
2023/01/30 04:58:18;;;;;;;14.40;10.52;;;3.40;99.90;;;;;;5054404;28;20112;-89
2023/01/30 05:00:44;;;;;;;14.65;10.07;;;3.00;99.90;;;;;;5053863;28;20079;-89
2023/01/30 05:03:10;;;;;;;16.30;11.13;;;3.10;99.90;;;;;;5054130;28;20031;-89
2023/01/30 05:05:35;;;;;;;14.60;10.77;;;3.00;99.90;;;;;;5054127;28;20028;-90
2023/01/30 05:08:02;;;;;;;14.55;10.55;;;3.60;99.90;;;;;;5054294;28;20083;-89
2023/01/30 05:10:27;;;;;;;16.15;10.48;;;3.40;99.90;;;;;;5054296;28;20099;-89
2023/01/30 05:12:53;;;;;;;17.25;10.73;;;2.80;99.90;;;;;;5054154;28;20031;-90
2023/01/30 05:15:19;;;;;;;14.82;10.40;;;2.90;99.90;;;;;;5036607;28;20108;-89
2023/01/30 05:17:44;;;;;;;12.88;10.27;;;3.00;99.90;;;;;;5053924;28;20028;-90
2023/01/30 05:20:12;;;;;;;14.57;10.45;;;3.10;99.90;;;;;;5036014;28;20489;-89
2023/01/30 05:22:38;;;;;;;13.30;9.60;;;2.80;99.90;;;;;;5053718;28;20456;-89
2023/01/30 05:25:04;;;;;;;12.38;9.50;;;3.10;99.90;;;;;;5035859;28;20136;-89
2023/01/30 05:27:30;;;;;;;13.88;10.02;;;2.90;99.90;;;;;;5035506;28;20068;-89
2023/01/30 05:29:55;;;;;;;13.85;9.80;;;3.20;99.90;;;;;;5035130;28;20032;-89
2023/01/30 05:32:21;;;;;;;12.02;9.73;;;3.30;99.90;;;;;;5035437;28;20072;-89
2023/01/30 05:34:48;;;;;;;13.40;10.27;;;3.10;99.90;;;;;;5028143;28;20031;-89
2023/01/30 05:37:14;;;;;;;12.68;9.55;;;3.40;99.90;;;;;;5053148;28;20035;-89
2023/01/30 05:39:40;;;;;;;13.23;9.57;;;3.00;99.90;;;;;;5053463;28;20388;-89
2023/01/30 05:42:05;;;;;;;13.65;10.43;;;2.90;99.90;;;;;;5053662;28;20055;-89
2023/01/30 05:44:31;;;;;;;12.95;9.65;;;3.30;99.90;;;;;;5035252;28;20481;-89
2023/01/30 05:46:56;;;;;;;13.77;10.32;;;2.80;99.90;;;;;;5053209;28;20029;-89
2023/01/30 05:49:22;;;;;;;52.67;35.38;;;3.10;99.90;;;;;;5053036;28;20032;-89
2023/01/30 05:51:48;;;;;;;16.65;12.18;;;3.20;99.90;;;;;;5053363;28;20055;-89
2023/01/30 05:54:14;;;;;;;17.63;12.23;;;2.40;99.90;;;;;;5053331;28;20017;-89
2023/01/30 05:56:40;;;;;;;13.85;10.52;;;3.00;99.90;;;;;;5053602;28;20029;-89
2023/01/30 05:59:05;;;;;;;13.38;10.48;;;2.50;99.90;;;;;;5052817;28;20036;-89
2023/01/30 06:01:31;;;;;;;19.40;14.00;;;2.90;99.90;;;;;;5035338;28;20027;-89
2023/01/30 06:03:57;;;;;;;17.52;12.73;;;2.90;99.90;;;;;;5052652;28;20025;-89
2023/01/30 06:06:24;;;;;;;13.38;10.48;;;2.60;99.90;;;;;;5052960;28;20075;-89
2023/01/30 06:08:54;;;;;;;11.98;9.32;;;2.80;99.90;;;;;;5052756;28;20029;-89
2023/01/30 06:11:20;;;;;;;13.30;10.40;;;2.90;99.90;;;;;;5052734;28;20036;-89
2023/01/30 06:13:46;;;;;;;13.77;9.95;;;2.60;99.90;;;;;;5034594;28;20031;-89
2023/01/30 06:16:13;;;;;;;12.90;9.05;;;3.00;99.90;;;;;;5035127;28;20463;-89
2023/01/30 06:18:39;;;;;;;12.90;9.65;;;2.80;99.90;;;;;;5052610;28;20469;-89
2023/01/30 06:21:05;;;;;;;14.38;10.90;;;2.80;99.90;;;;;;5052944;28;20025;-90
2023/01/30 06:23:31;;;;;;;11.18;8.80;;;2.70;99.90;;;;;;5052724;28;20024;-92
2023/01/30 06:25:57;;;;;;;12.90;9.57;;;3.10;99.90;;;;;;5053452;28;20507;-90
2023/01/30 06:28:24;;;;;;;12.00;9.68;;;3.00;99.90;;;;;;5053168;28;20551;-89
2023/01/30 06:30:50;;;;;;;14.18;9.00;;;2.60;99.90;;;;;;5053114;28;20057;-92
2023/01/30 06:33:16;;;;;;;10.68;8.40;;;2.80;99.90;;;;;;5036027;28;20124;-91
2023/01/30 06:35:42;;;;;;;12.07;8.98;;;3.00;99.90;;;;;;5053019;28;20485;-93
2023/01/30 06:38:10;;;;;;;11.15;8.55;;;3.00;99.90;;;;;;5035353;28;20025;-90
2023/01/30 06:40:36;;;;;;;11.15;8.73;;;2.50;99.90;;;;;;5055116;28;20029;-91
2023/01/30 06:43:03;;;;;;;11.50;8.35;;;2.80;99.90;;;;;;5038541;28;20119;-89
2023/01/30 06:45:28;;;;;;;11.70;8.30;;;3.20;99.90;;;;;;5039427;28;20503;-92
2023/01/30 06:47:55;;;;;;;10.88;8.10;;;2.60;99.90;;;;;;5056654;28;20029;-92
2023/01/30 06:50:24;;;;;;;13.35;9.57;;;2.70;99.90;;;;;;5038483;28;20040;-87
2023/01/30 06:52:51;;;;;;;13.30;9.63;;;3.00;99.90;;;;;;5038667;28;20032;-90
2023/01/30 06:55:19;;;;;;;13.20;8.55;;;2.80;99.90;;;;;;5056054;28;20032;-90
2023/01/30 06:57:46;;;;;;;15.48;12.32;;;3.00;99.90;;;;;;5039155;28;20507;-91
2023/01/30 07:00:14;;;;;;;12.90;8.73;;;2.60;99.90;;;;;;5038650;28;20493;-90
2023/01/30 07:02:40;;;;;;;11.65;8.50;;;2.60;99.90;;;;;;5038501;28;20091;-91
2023/01/30 07:05:07;;;;;;;14.35;10.40;;;2.80;99.90;;;;;;5038271;28;20081;-90
2023/01/30 07:07:34;;;;;;;14.43;10.82;;;2.60;99.90;;;;;;5038738;28;20116;-91
2023/01/30 07:10:00;;;;;;;14.70;10.38;;;3.00;99.90;;;;;;5055883;28;20392;-91
2023/01/30 07:12:26;;;;;;;12.60;9.02;;;2.70;99.90;;;;;;5038114;28;20021;-90
2023/01/30 07:14:52;;;;;;;13.30;9.80;;;3.20;99.90;;;;;;5038138;28;20025;-90
2023/01/30 07:17:19;;;;;;;13.13;9.57;;;2.60;99.90;;;;;;5055533;28;20025;-90
2023/01/30 07:19:45;;;;;;;11.18;8.90;;;2.90;99.90;;;;;;5038309;28;20029;-91
2023/01/30 07:22:10;;;;;;;25.48;15.75;;;2.60;99.90;;;;;;5055895;28;20028;-90
2023/01/30 07:24:37;;;;;;;12.45;9.07;;;2.50;99.90;;;;;;5038371;28;20056;-91
2023/01/30 07:27:03;;;;;;;12.77;8.73;;;2.80;99.90;;;;;;5055422;28;20103;-90
2023/01/30 07:29:28;;;;;;;11.82;8.82;;;2.50;99.90;;;;;;5044007;28;20112;-92
2023/01/30 07:31:54;;;;;;;21.70;15.25;;;2.40;99.90;;;;;;5056009;28;20076;-91
2023/01/30 07:34:20;;;;;;;13.18;9.40;;;3.00;99.90;;;;;;5055741;28;20021;-90
2023/01/30 07:36:45;;;;;;;11.82;8.68;;;2.20;99.90;;;;;;5056413;28;20067;-92
2023/01/30 07:39:11;;;;;;;11.77;9.38;;;2.30;99.90;;;;;;5037825;28;20059;-91
2023/01/30 07:41:36;;;;;;;10.38;8.07;;;2.40;99.90;;;;;;5055765;28;20084;-90
2023/01/30 07:44:02;;;;;;;10.10;8.15;;;2.90;99.90;;;;;;5055427;28;20021;-91
2023/01/30 07:46:33;;;;;;;10.43;8.10;;;2.20;99.90;;;;;;5038101;28;20036;-91
2023/01/30 07:49:03;;;;;;;12.30;8.70;;;2.10;99.90;;;;;;5036479;28;20033;-90
2023/01/30 07:51:29;;;;;;;11.25;7.88;;;2.50;99.90;;;;;;5037090;28;20035;-90
2023/01/30 07:53:55;;;;;;;11.52;8.45;;;2.40;99.90;;;;;;5055233;28;20017;-91
2023/01/30 07:56:21;;;;;;;11.52;8.52;;;2.70;99.90;;;;;;5055348;28;20423;-91
2023/01/30 07:58:47;;;;;;;11.38;8.60;;;2.90;99.90;;;;;;5030997;28;20025;-90
2023/01/30 08:01:13;;;;;;;10.80;8.30;;;3.00;99.90;;;;;;5053894;28;20056;-90
2023/01/30 08:03:39;;;;;;;12.20;9.35;;;2.70;99.90;;;;;;5053886;28;20102;-90
2023/01/30 08:06:05;;;;;;;13.35;9.30;;;2.70;99.90;;;;;;5073218;28;20024;-90
2023/01/30 08:08:30;;;;;;;25.95;15.73;;;2.20;99.90;;;;;;5057810;28;20021;-88
2023/01/30 08:10:56;;;;;;;13.27;9.65;;;2.80;99.90;;;;;;5053912;28;20061;-88
2023/01/30 08:13:21;;;;;;;13.27;9.43;;;3.40;99.90;;;;;;5054894;28;20040;-89
2023/01/30 08:15:47;;;;;;;11.40;8.85;;;3.10;99.90;;;;;;5035325;28;20091;-86
2023/01/30 08:18:13;;;;;;;13.73;9.60;;;3.00;99.90;;;;;;5054593;28;20029;-92
2023/01/30 08:20:41;;;;;;;13.77;10.00;;;3.20;99.90;;;;;;5053983;28;20100;-86
2023/01/30 08:23:07;;;;;;;10.73;8.35;;;3.20;99.90;;;;;;5053409;28;20029;-85
2023/01/30 08:25:34;;;;;;;12.75;8.57;;;3.20;99.90;;;;;;5052645;28;20512;-85
2023/01/30 08:28:00;;;;;;;11.98;8.63;;;3.00;99.90;;;;;;5053160;28;20100;-87
2023/01/30 08:30:29;;;;;;;9.80;7.75;;;3.40;99.90;;;;;;5054700;28;20099;-90
2023/01/30 08:32:55;;;;;;;12.60;9.27;;;3.30;99.90;;;;;;5047535;28;20044;-87
2023/01/30 08:35:21;;;;;;;20.77;14.40;;;3.30;99.90;;;;;;5066317;28;20025;-89
2023/01/30 08:37:46;;;;;;;11.57;8.85;;;3.60;99.90;;;;;;5054743;28;20072;-88
2023/01/30 08:40:13;;;;;;;11.63;8.13;;;3.60;99.90;;;;;;5054668;28;20048;-88
2023/01/30 08:42:38;;;;;;;11.73;9.10;;;3.30;99.90;;;;;;5052830;28;20021;-88
2023/01/30 08:45:04;;;;;;;15.95;10.82;;;3.20;99.90;;;;;;5052015;28;20041;-86
2023/01/30 08:47:30;;;;;;;12.18;8.82;;;3.20;99.90;;;;;;5035036;28;20021;-88
2023/01/30 08:49:56;;;;;;;9.82;7.88;;;3.30;99.90;;;;;;5053514;28;20386;-87
2023/01/30 08:52:22;;;;;;;10.70;8.15;;;3.30;99.90;;;;;;5034578;28;20032;-83
2023/01/30 08:54:47;;;;;;;10.68;8.57;;;3.70;99.90;;;;;;5052754;28;20032;-86
2023/01/30 08:57:14;;;;;;;15.18;10.88;;;4.00;99.90;;;;;;5052788;28;20124;-85
2023/01/30 08:59:39;;;;;;;10.95;8.20;;;3.70;99.90;;;;;;5053159;28;20017;-89
2023/01/30 09:02:08;;;;;;;11.15;8.18;;;3.90;99.90;;;;;;5052894;28;20040;-88
2023/01/30 09:04:33;;;;;;;10.70;8.10;;;3.90;99.90;;;;;;5052756;28;20025;-85
2023/01/30 09:06:59;;;;;;;10.82;8.38;;;3.70;99.90;;;;;;5052606;28;20044;-86
2023/01/30 09:09:25;;;;;;;12.70;9.07;;;3.70;99.90;;;;;;5053758;28;20083;-84
2023/01/30 09:11:51;;;;;;;10.93;8.60;;;3.70;99.90;;;;;;5052507;28;20516;-83
2023/01/30 09:14:19;;;;;;;11.65;8.27;;;3.80;99.90;;;;;;5053308;28;20064;-83
2023/01/30 09:16:46;;;;;;;11.38;9.18;;;4.10;99.90;;;;;;5051817;28;20080;-85
2023/01/30 09:19:13;;;;;;;14.93;8.77;;;4.10;99.90;;;;;;5052169;28;20036;-88
2023/01/30 09:21:38;;;;;;;13.65;8.98;;;3.90;99.90;;;;;;5034300;28;20032;-85
2023/01/30 09:24:05;;;;;;;10.90;8.75;;;3.90;99.90;;;;;;5052966;28;20021;-85
2023/01/30 09:26:31;;;;;;;11.57;9.25;;;4.30;99.90;;;;;;5052215;28;20104;-84
2023/01/30 09:28:56;;;;;;;11.32;7.95;;;4.40;99.90;;;;;;5053209;28;20119;-84
2023/01/30 09:31:22;;;;;;;14.25;9.20;;;4.60;99.90;;;;;;5051368;28;20144;-85
2023/01/30 09:33:47;;;;;;;12.38;8.88;;;4.90;99.90;;;;;;5052594;28;20076;-85
2023/01/30 09:36:13;;;;;;;13.50;8.57;;;4.40;99.90;;;;;;5051085;28;20033;-85
2023/01/30 09:38:39;;;;;;;12.52;9.10;;;4.70;99.90;;;;;;5052549;28;20465;-84
2023/01/30 09:41:16;;;;;;;13.75;9.85;;;5.20;99.90;;;;;;5034138;28;20488;-85
2023/01/30 09:44:05;;;;;;;31.15;18.85;;;4.90;99.90;;;;;;5049633;28;20036;-85
2023/01/30 09:46:42;;;;;;;16.77;12.25;;;4.80;99.90;;;;;;5031501;28;20059;-85
2023/01/30 09:49:08;;;;;;;16.38;11.40;;;5.00;99.90;;;;;;5052533;28;20027;-85
2023/01/30 09:51:47;;;;;;;10.88;7.70;;;5.30;99.90;;;;;;5051575;28;20103;-85
2023/01/30 09:54:20;;;;;;;9.77;7.72;;;4.50;99.90;;;;;;5033912;28;20021;-84
2023/01/30 09:57:16;;;;;;;20.73;13.40;;;4.90;99.90;;;;;;5026816;28;20138;-85
2023/01/30 10:00:08;;;;;;;19.10;11.43;;;5.50;99.90;;;;;;5051056;28;20052;-85
2023/01/30 10:02:44;;;;;;;10.57;7.78;;;6.30;99.90;;;;;;4990486;28;20034;-85
2023/01/30 10:05:11;;;;;;;8.52;7.10;;;7.70;99.90;;;;;;4989725;28;20034;-87
2023/01/30 10:08:01;;;;;;;12.70;9.57;;;6.50;99.90;;;;;;4989711;28;20043;-86
2023/01/30 10:10:35;;;;;;;10.18;8.45;;;6.10;99.90;;;;;;5003155;28;20042;-85
2023/01/30 10:13:29;;;;;;;20.55;15.70;;;5.50;99.90;;;;;;5006345;28;20584;-84
2023/01/30 10:16:32;;;;;;;11.07;9.70;;;5.00;99.90;;;;;;4990379;28;20022;-86
2023/01/30 10:19:18;;;;;;;19.25;12.35;;;5.00;99.90;;;;;;4989545;28;20112;-87
2023/01/30 10:21:56;;;;;;;42.40;37.30;;;5.00;99.90;;;;;;4990513;28;20034;-86
2023/01/30 10:24:40;;;;;;;160.65;128.52;;;5.40;99.90;;;;;;4973639;28;20446;-86
2023/01/30 10:27:13;;;;;;;188.48;155.23;;;5.30;99.90;;;;;;4989346;28;20133;-88
2023/01/30 10:29:42;;;;;;;15.20;12.57;;;5.20;99.90;;;;;;4989319;28;20048;-90
2023/01/30 10:32:15;;;;;;;11.30;9.48;;;5.20;99.90;;;;;;4988964;28;20046;-85
2023/01/30 10:34:48;;;;;;;32.13;23.90;;;5.00;99.90;;;;;;4972622;28;20100;-93
2023/01/30 10:37:32;;;;;;;12.98;10.38;;;4.90;99.90;;;;;;4990382;28;20085;-86
2023/01/30 10:40:01;;;;;;;15.82;9.98;;;5.40;99.90;;;;;;5030269;28;20444;-86
2023/01/30 10:43:04;;;;;;;14.05;9.77;;;5.20;99.90;;;;;;5050893;28;20404;-86
2023/01/30 10:45:45;;;;;;;15.35;10.60;;;5.40;99.90;;;;;;5014479;28;20029;-86
2023/01/30 10:48:36;;;;;;;8.98;7.35;;;5.20;99.90;;;;;;5040365;28;20039;-86
2023/01/30 10:51:30;;;;;;;11.23;8.68;;;4.80;99.90;;;;;;5033462;28;20033;-86
2023/01/30 10:54:04;;;;;;;11.75;9.55;;;5.20;99.90;;;;;;5051384;28;20024;-84
2023/01/30 10:56:46;;;;;;;11.32;8.85;;;5.50;99.90;;;;;;5052088;28;20469;-86
2023/01/30 10:59:20;;;;;;;10.15;7.63;;;6.20;99.90;;;;;;5051318;28;20095;-90
2023/01/30 11:01:57;;;;;;;10.93;7.88;;;9.60;99.90;;;;;;5043107;28;20037;-88
2023/01/30 11:04:48;;;;;;;10.13;7.82;;;8.60;99.90;;;;;;5036174;28;20021;-92
2023/01/30 11:07:14;;;;;;;11.57;8.45;;;7.40;99.90;;;;;;5050913;28;20041;-88
2023/01/30 11:09:47;;;;;;;12.02;8.25;;;13.40;99.90;;;;;;5050774;28;20476;-87
2023/01/30 11:12:13;;;;;;;10.73;8.60;;;14.50;99.90;;;;;;5031912;28;20057;-91
2023/01/30 11:15:00;;;;;;;8.98;7.90;;;14.30;99.90;;;;;;5014184;28;20033;-88
2023/01/30 11:17:37;;;;;;;13.02;11.82;;;16.40;99.90;;;;;;5050768;28;20033;-89
2023/01/30 11:20:16;;;;;;;9.85;8.43;;;18.30;99.90;;;;;;5034025;28;20029;-87
2023/01/30 11:23:02;;;;;;;9.77;8.52;;;18.90;99.90;;;;;;5050372;28;20087;-87
2023/01/30 11:25:28;;;;;;;8.95;8.05;;;19.60;99.90;;;;;;5051133;28;20024;-87
2023/01/30 11:28:00;;;;;;;9.88;8.88;;;17.80;99.90;;;;;;5055278;28;20394;-89
2023/01/30 11:30:35;;;;;;;10.75;9.65;;;16.40;99.90;;;;;;5036813;28;20087;-88
2023/01/30 11:33:11;;;;;;;9.95;8.80;;;17.10;99.90;;;;;;5050290;28;20049;-88
2023/01/30 11:35:54;;;;;;;10.80;9.70;;;19.50;99.90;;;;;;5043567;28;20509;-84
2023/01/30 11:38:23;;;;;;;9.93;8.93;;;17.90;99.90;;;;;;5053988;28;20186;-85
2023/01/30 11:40:49;;;;;;;10.48;9.45;;;17.10;99.90;;;;;;5054477;28;20025;-83
2023/01/30 11:43:14;;;;;;;10.73;9.60;;;13.60;99.90;;;;;;5054650;28;20077;-85
2023/01/30 11:45:47;;;;;;;10.73;9.63;;;13.30;99.90;;;;;;5054397;28;20029;-84
2023/01/30 11:48:25;;;;;;;12.40;10.73;;;17.00;99.90;;;;;;5053834;28;20032;-91
2023/01/30 11:51:00;;;;;;;13.15;11.20;;;16.20;99.90;;;;;;5037025;28;20519;-89
2023/01/30 11:53:45;;;;;;;91.47;39.53;;;17.50;99.90;;;;;;5054201;28;20473;-96
2023/01/30 11:56:39;;;;;;;56.78;30.73;;;14.10;99.90;;;;;;5053761;28;20033;-90
2023/01/30 11:59:19;;;;;;;49.60;29.02;;;12.60;99.90;;;;;;5034641;28;20045;-88
2023/01/30 12:01:45;;;;;;;11.18;10.02;;;15.40;99.90;;;;;;5036003;28;20041;-91
2023/01/30 12:04:12;;;;;;;16.35;14.68;;;17.70;99.90;;;;;;5037384;28;20021;-90
2023/01/30 12:06:41;;;;;;;11.40;10.27;;;17.80;99.90;;;;;;5054293;28;20540;-88
2023/01/30 12:09:36;;;;;;;11.50;10.30;;;18.20;99.90;;;;;;5052466;28;20021;-87
2023/01/30 12:12:23;;;;;;;12.45;11.05;;;18.30;99.90;;;;;;5052021;28;20078;-88
2023/01/30 12:14:52;;;;;;;12.75;11.45;;;15.10;99.90;;;;;;5035317;28;20035;-89
2023/01/30 12:17:30;;;;;;;13.73;12.25;;;16.60;99.90;;;;;;5053721;28;20515;-87
2023/01/30 12:19:58;;;;;;;12.15;10.85;;;18.10;99.90;;;;;;5052794;28;20393;-87
2023/01/30 12:22:38;;;;;;;13.50;11.27;;;16.30;99.90;;;;;;5054019;28;20028;-87
2023/01/30 12:25:14;;;;;;;13.15;11.85;;;17.50;99.90;;;;;;5053762;28;20032;-87
2023/01/30 12:27:58;;;;;;;13.30;11.98;;;16.00;99.90;;;;;;5053862;28;20017;-87
2023/01/30 12:30:56;;;;;;;12.68;10.95;;;16.70;99.90;;;;;;5053440;28;20040;-87
2023/01/30 12:33:28;;;;;;;14.13;12.73;;;17.60;99.90;;;;;;5054193;28;20065;-87
2023/01/30 12:36:12;;;;;;;12.30;11.10;;;17.10;99.90;;;;;;5054152;28;20035;-87
2023/01/30 12:38:38;;;;;;;13.23;11.93;;;17.50;99.90;;;;;;5036021;28;20568;-87
2023/01/30 12:41:30;;;;;;;12.70;11.35;;;16.30;99.90;;;;;;5053287;28;20111;-87
2023/01/30 12:44:16;;;;;;;12.98;11.52;;;17.40;99.90;;;;;;5053152;28;20025;-87
2023/01/30 12:47:17;;;;;;;12.48;11.18;;;16.60;99.90;;;;;;5053689;28;20025;-87
2023/01/30 12:49:43;;;;;;;14.20;12.55;;;15.80;99.90;;;;;;4992632;28;20069;-87
2023/01/30 12:52:29;;;;;;;13.95;12.30;;;16.10;99.90;;;;;;4991926;28;20426;-87
2023/01/30 12:55:18;;;;;;;16.17;14.35;;;16.00;99.90;;;;;;4991875;28;20126;-87
2023/01/30 12:57:55;;;;;;;13.25;11.85;;;14.60;99.90;;;;;;4991809;28;20045;-87
2023/01/30 13:00:32;;;;;;;13.50;12.10;;;13.80;99.90;;;;;;4991525;28;20042;-87
2023/01/30 13:02:58;;;;;;;13.88;12.48;;;14.70;99.90;;;;;;4991777;28;20414;-87
2023/01/30 13:05:55;;;;;;;16.13;14.43;;;14.90;99.90;;;;;;4991713;28;20105;-87